sensor_id;sensor_type;location;lat;lon;timestamp;pressure;altitude;pressure_sealevel;temperature;humidity
64298;BME280;50639;53.270;7.956;2023-04-16T00:00:53;101997.41;;;6.70;88.36
64298;BME280;50639;53.270;7.956;2023-04-16T00:03:21;102004.81;;;6.67;88.61
64298;BME280;50639;53.270;7.956;2023-04-16T00:05:47;102000.19;;;6.69;88.24
64298;BME280;50639;53.270;7.956;2023-04-16T00:08:13;102002.72;;;6.70;88.03
64298;BME280;50639;53.270;7.956;2023-04-16T00:10:38;102004.97;;;6.65;88.63
64298;BME280;50639;53.270;7.956;2023-04-16T00:13:04;102002.56;;;6.62;88.59
64298;BME280;50639;53.270;7.956;2023-04-16T00:15:29;102003.13;;;6.56;88.25
64298;BME280;50639;53.270;7.956;2023-04-16T00:17:55;102000.72;;;6.53;88.66
64298;BME280;50639;53.270;7.956;2023-04-16T00:20:23;102001.44;;;6.55;88.37
64298;BME280;50639;53.270;7.956;2023-04-16T00:22:49;102001.00;;;6.50;88.95
64298;BME280;50639;53.270;7.956;2023-04-16T00:25:15;102009.22;;;6.47;89.03
64298;BME280;50639;53.270;7.956;2023-04-16T00:27:40;102001.25;;;6.47;89.28
64298;BME280;50639;53.270;7.956;2023-04-16T00:30:06;102004.19;;;6.44;88.41
64298;BME280;50639;53.270;7.956;2023-04-16T00:32:32;102002.81;;;6.50;88.35
64298;BME280;50639;53.270;7.956;2023-04-16T00:35:00;102006.72;;;6.46;88.56
64298;BME280;50639;53.270;7.956;2023-04-16T00:37:26;101993.84;;;6.41;87.97
64298;BME280;50639;53.270;7.956;2023-04-16T00:39:51;101998.31;;;6.40;88.41
64298;BME280;50639;53.270;7.956;2023-04-16T00:42:17;102009.50;;;6.44;88.86
64298;BME280;50639;53.270;7.956;2023-04-16T00:44:42;102009.22;;;6.47;88.28
64298;BME280;50639;53.270;7.956;2023-04-16T00:47:08;101998.88;;;6.44;88.19
64298;BME280;50639;53.270;7.956;2023-04-16T00:49:34;102002.09;;;6.48;88.53
64298;BME280;50639;53.270;7.956;2023-04-16T00:52:00;102005.03;;;6.45;88.78
64298;BME280;50639;53.270;7.956;2023-04-16T00:54:27;102014.66;;;6.46;88.69
64298;BME280;50639;53.270;7.956;2023-04-16T00:56:53;102009.50;;;6.44;88.62
64298;BME280;50639;53.270;7.956;2023-04-16T00:59:19;102015.94;;;6.41;88.63
64298;BME280;50639;53.270;7.956;2023-04-16T01:01:48;102018.03;;;6.48;87.94
64298;BME280;50639;53.270;7.956;2023-04-16T01:04:14;102025.69;;;6.41;87.88
64298;BME280;50639;53.270;7.956;2023-04-16T01:06:41;102027.63;;;6.39;88.26
64298;BME280;50639;53.270;7.956;2023-04-16T01:09:06;102024.53;;;6.34;87.16
64298;BME280;50639;53.270;7.956;2023-04-16T01:11:32;102036.41;;;6.30;87.42
64298;BME280;50639;53.270;7.956;2023-04-16T01:13:58;102040.69;;;6.21;88.13
64298;BME280;50639;53.270;7.956;2023-04-16T01:16:23;102040.09;;;6.18;89.33
64298;BME280;50639;53.270;7.956;2023-04-16T01:18:50;102041.91;;;6.17;89.43
64298;BME280;50639;53.270;7.956;2023-04-16T01:21:16;102052.25;;;6.20;88.91
64298;BME280;50639;53.270;7.956;2023-04-16T01:23:41;102043.03;;;6.15;89.23
64298;BME280;50639;53.270;7.956;2023-04-16T01:26:07;102046.00;;;6.21;88.81
64298;BME280;50639;53.270;7.956;2023-04-16T01:28:32;102042.38;;;6.22;89.39
64298;BME280;50639;53.270;7.956;2023-04-16T01:30:58;102046.53;;;6.25;89.22
64298;BME280;50639;53.270;7.956;2023-04-16T01:33:34;102042.94;;;6.26;89.44
64298;BME280;50639;53.270;7.956;2023-04-16T01:36:00;102051.84;;;6.25;88.46
64298;BME280;50639;53.270;7.956;2023-04-16T01:38:25;102053.50;;;6.16;88.53
64298;BME280;50639;53.270;7.956;2023-04-16T01:40:55;102042.19;;;6.14;89.01
64298;BME280;50639;53.270;7.956;2023-04-16T01:43:25;102050.41;;;6.11;88.67
64298;BME280;50639;53.270;7.956;2023-04-16T01:45:58;102042.97;;;6.05;89.46
64298;BME280;50639;53.270;7.956;2023-04-16T01:49:03;102052.47;;;6.08;88.68
64298;BME280;50639;53.270;7.956;2023-04-16T01:51:54;102055.03;;;6.19;89.17
64298;BME280;50639;53.270;7.956;2023-04-16T01:54:21;102059.81;;;6.25;88.85
64298;BME280;50639;53.270;7.956;2023-04-16T01:56:46;102061.78;;;6.23;88.55
64298;BME280;50639;53.270;7.956;2023-04-16T01:59:12;102059.97;;;6.23;88.10
64298;BME280;50639;53.270;7.956;2023-04-16T02:01:40;102074.22;;;6.22;88.02
64298;BME280;50639;53.270;7.956;2023-04-16T02:04:06;102063.47;;;6.24;88.04
64298;BME280;50639;53.270;7.956;2023-04-16T02:06:32;102065.00;;;6.26;88.09
64298;BME280;50639;53.270;7.956;2023-04-16T02:08:57;102071.44;;;6.24;88.24
64298;BME280;50639;53.270;7.956;2023-04-16T02:11:24;102065.28;;;6.23;88.46
64298;BME280;50639;53.270;7.956;2023-04-16T02:13:57;102079.75;;;6.19;87.51
64298;BME280;50639;53.270;7.956;2023-04-16T02:16:24;102073.41;;;6.31;88.39
64298;BME280;50639;53.270;7.956;2023-04-16T02:19:13;102057.81;;;6.38;87.68
64298;BME280;50639;53.270;7.956;2023-04-16T02:21:41;102071.31;;;6.35;87.50
64298;BME280;50639;53.270;7.956;2023-04-16T02:24:06;102070.63;;;6.33;88.17
64298;BME280;50639;53.270;7.956;2023-04-16T02:26:33;102066.72;;;6.37;87.44
64298;BME280;50639;53.270;7.956;2023-04-16T02:29:04;102074.56;;;6.38;87.18
64298;BME280;50639;53.270;7.956;2023-04-16T02:31:37;102054.13;;;6.29;87.28
64298;BME280;50639;53.270;7.956;2023-04-16T02:34:27;102069.78;;;6.32;87.25
64298;BME280;50639;53.270;7.956;2023-04-16T02:36:56;102076.19;;;6.30;86.88
64298;BME280;50639;53.270;7.956;2023-04-16T02:39:22;102070.34;;;6.06;87.29
64298;BME280;50639;53.270;7.956;2023-04-16T02:41:48;102083.13;;;6.00;88.03
64298;BME280;50639;53.270;7.956;2023-04-16T02:44:13;102085.00;;;6.10;88.13
64298;BME280;50639;53.270;7.956;2023-04-16T02:46:39;102075.38;;;6.09;88.18
64298;BME280;50639;53.270;7.956;2023-04-16T02:49:04;102073.56;;;6.09;88.56
64298;BME280;50639;53.270;7.956;2023-04-16T02:51:29;102079.03;;;6.17;88.45
64298;BME280;50639;53.270;7.956;2023-04-16T02:53:55;102088.81;;;6.17;88.67
64298;BME280;50639;53.270;7.956;2023-04-16T02:56:20;102083.66;;;6.15;89.04
64298;BME280;50639;53.270;7.956;2023-04-16T02:58:46;102081.00;;;6.15;88.71
64298;BME280;50639;53.270;7.956;2023-04-16T03:01:11;102088.75;;;6.28;89.04
64298;BME280;50639;53.270;7.956;2023-04-16T03:03:36;102088.63;;;6.29;87.99
64298;BME280;50639;53.270;7.956;2023-04-16T03:06:05;102091.50;;;6.47;88.06
64298;BME280;50639;53.270;7.956;2023-04-16T03:08:30;102092.91;;;6.51;87.61
64298;BME280;50639;53.270;7.956;2023-04-16T03:10:55;102101.03;;;6.50;87.43
64298;BME280;50639;53.270;7.956;2023-04-16T03:13:21;102098.19;;;6.41;86.90
64298;BME280;50639;53.270;7.956;2023-04-16T03:15:48;102097.53;;;6.49;87.11
64298;BME280;50639;53.270;7.956;2023-04-16T03:18:13;102094.75;;;6.51;87.06
64298;BME280;50639;53.270;7.956;2023-04-16T03:20:39;102099.53;;;6.57;86.82
64298;BME280;50639;53.270;7.956;2023-04-16T03:23:05;102100.13;;;6.70;86.72
64298;BME280;50639;53.270;7.956;2023-04-16T03:25:30;102091.47;;;6.68;86.06
64298;BME280;50639;53.270;7.956;2023-04-16T03:27:56;102090.03;;;6.64;86.20
64298;BME280;50639;53.270;7.956;2023-04-16T03:30:21;102106.84;;;6.74;86.77
64298;BME280;50639;53.270;7.956;2023-04-16T03:32:47;102094.25;;;6.66;86.11
64298;BME280;50639;53.270;7.956;2023-04-16T03:35:15;102106.31;;;6.80;86.25
64298;BME280;50639;53.270;7.956;2023-04-16T03:37:44;102108.53;;;6.75;86.42
64298;BME280;50639;53.270;7.956;2023-04-16T03:40:12;102106.28;;;6.70;86.40
64298;BME280;50639;53.270;7.956;2023-04-16T03:42:38;102090.88;;;6.64;86.23
64298;BME280;50639;53.270;7.956;2023-04-16T03:45:04;102084.44;;;6.57;86.73
64298;BME280;50639;53.270;7.956;2023-04-16T03:47:33;102078.94;;;6.49;86.56
64298;BME280;50639;53.270;7.956;2023-04-16T03:50:01;102107.69;;;6.74;86.70
64298;BME280;50639;53.270;7.956;2023-04-16T03:52:27;102094.69;;;6.71;86.01
64298;BME280;50639;53.270;7.956;2023-04-16T03:54:53;102103.47;;;6.72;86.37
64298;BME280;50639;53.270;7.956;2023-04-16T03:57:27;102109.84;;;6.90;85.58
64298;BME280;50639;53.270;7.956;2023-04-16T03:59:56;102111.91;;;6.87;85.70
64298;BME280;50639;53.270;7.956;2023-04-16T04:02:26;102113.88;;;6.85;85.43
64298;BME280;50639;53.270;7.956;2023-04-16T04:04:52;102118.22;;;6.86;86.34
64298;BME280;50639;53.270;7.956;2023-04-16T04:07:17;102120.47;;;6.90;85.76
64298;BME280;50639;53.270;7.956;2023-04-16T04:09:42;102113.59;;;6.88;86.27
64298;BME280;50639;53.270;7.956;2023-04-16T04:12:11;102114.06;;;6.93;85.30
64298;BME280;50639;53.270;7.956;2023-04-16T04:14:45;102120.75;;;6.97;85.44
64298;BME280;50639;53.270;7.956;2023-04-16T04:17:14;102114.44;;;6.88;85.83
64298;BME280;50639;53.270;7.956;2023-04-16T04:19:39;102123.72;;;6.94;85.99
64298;BME280;50639;53.270;7.956;2023-04-16T04:22:06;102135.31;;;6.93;85.79
64298;BME280;50639;53.270;7.956;2023-04-16T04:24:31;102133.44;;;6.84;85.63
64298;BME280;50639;53.270;7.956;2023-04-16T04:27:00;102137.13;;;6.92;85.78
64298;BME280;50639;53.270;7.956;2023-04-16T04:29:29;102140.88;;;6.90;86.65
64298;BME280;50639;53.270;7.956;2023-04-16T04:31:55;102145.81;;;6.94;86.53
64298;BME280;50639;53.270;7.956;2023-04-16T04:34:21;102145.47;;;6.88;86.48
64298;BME280;50639;53.270;7.956;2023-04-16T04:36:47;102146.94;;;7.01;86.75
64298;BME280;50639;53.270;7.956;2023-04-16T04:39:14;102135.19;;;6.94;86.74
64298;BME280;50639;53.270;7.956;2023-04-16T04:41:42;102147.22;;;7.08;86.20
64298;BME280;50639;53.270;7.956;2023-04-16T04:44:07;102153.66;;;7.05;86.62
64298;BME280;50639;53.270;7.956;2023-04-16T04:46:33;102148.03;;;6.99;86.37
64298;BME280;50639;53.270;7.956;2023-04-16T04:48:58;102157.44;;;7.03;86.74
64298;BME280;50639;53.270;7.956;2023-04-16T04:51:23;102152.81;;;7.05;86.94
64298;BME280;50639;53.270;7.956;2023-04-16T04:53:49;102146.09;;;7.01;86.71
64298;BME280;50639;53.270;7.956;2023-04-16T04:56:17;102160.09;;;7.12;86.38
64298;BME280;50639;53.270;7.956;2023-04-16T04:58:42;102155.81;;;7.21;86.64
64298;BME280;50639;53.270;7.956;2023-04-16T05:01:08;102151.44;;;7.10;86.13
64298;BME280;50639;53.270;7.956;2023-04-16T05:03:34;102180.00;;;7.18;86.55
64298;BME280;50639;53.270;7.956;2023-04-16T05:05:59;102184.78;;;7.34;86.80
64298;BME280;50639;53.270;7.956;2023-04-16T05:08:25;102166.72;;;7.18;86.74
64298;BME280;50639;53.270;7.956;2023-04-16T05:10:50;102179.44;;;7.24;86.53
64298;BME280;50639;53.270;7.956;2023-04-16T05:13:18;102176.78;;;7.24;86.56
64298;BME280;50639;53.270;7.956;2023-04-16T05:15:43;102176.50;;;7.17;86.77
64298;BME280;50639;53.270;7.956;2023-04-16T05:18:09;102180.91;;;7.38;86.36
64298;BME280;50639;53.270;7.956;2023-04-16T05:20:38;102175.13;;;7.33;86.37
64298;BME280;50639;53.270;7.956;2023-04-16T05:23:03;102184.19;;;7.30;86.34
64298;BME280;50639;53.270;7.956;2023-04-16T05:25:28;102186.19;;;7.28;86.43
64298;BME280;50639;53.270;7.956;2023-04-16T05:27:54;102189.81;;;7.27;86.51
64298;BME280;50639;53.270;7.956;2023-04-16T05:30:19;102188.28;;;7.34;86.27
64298;BME280;50639;53.270;7.956;2023-04-16T05:32:44;102190.66;;;7.28;86.89
64298;BME280;50639;53.270;7.956;2023-04-16T05:35:10;102192.72;;;7.24;86.52
64298;BME280;50639;53.270;7.956;2023-04-16T05:37:35;102186.16;;;7.18;86.97
64298;BME280;50639;53.270;7.956;2023-04-16T05:40:01;102204.06;;;7.26;86.64
64298;BME280;50639;53.270;7.956;2023-04-16T05:42:26;102210.34;;;7.25;86.81
64298;BME280;50639;53.270;7.956;2023-04-16T05:44:52;102189.53;;;7.30;86.31
64298;BME280;50639;53.270;7.956;2023-04-16T05:47:17;102206.22;;;7.42;86.21
64298;BME280;50639;53.270;7.956;2023-04-16T05:49:43;102210.59;;;7.52;86.06
64298;BME280;50639;53.270;7.956;2023-04-16T05:52:08;102199.09;;;7.52;85.53
64298;BME280;50639;53.270;7.956;2023-04-16T05:54:34;102190.72;;;7.47;85.27
64298;BME280;50639;53.270;7.956;2023-04-16T05:57:02;102200.09;;;7.61;84.62
64298;BME280;50639;53.270;7.956;2023-04-16T05:59:28;102206.69;;;7.76;84.97
64298;BME280;50639;53.270;7.956;2023-04-16T06:01:55;102205.00;;;7.65;85.20
64298;BME280;50639;53.270;7.956;2023-04-16T06:04:21;102202.22;;;7.76;84.44
64298;BME280;50639;53.270;7.956;2023-04-16T06:06:52;102194.66;;;7.72;85.01
64298;BME280;50639;53.270;7.956;2023-04-16T06:09:17;102197.50;;;7.89;84.59
64298;BME280;50639;53.270;7.956;2023-04-16T06:11:43;102206.84;;;8.03;84.21
64298;BME280;50639;53.270;7.956;2023-04-16T06:14:09;102202.09;;;7.97;84.61
64298;BME280;50639;53.270;7.956;2023-04-16T06:16:34;102204.47;;;8.10;84.22
64298;BME280;50639;53.270;7.956;2023-04-16T06:19:00;102214.13;;;8.20;84.11
64298;BME280;50639;53.270;7.956;2023-04-16T06:21:25;102206.75;;;8.34;83.81
64298;BME280;50639;53.270;7.956;2023-04-16T06:23:51;102216.53;;;8.52;83.78
64298;BME280;50639;53.270;7.956;2023-04-16T06:26:17;102191.44;;;8.36;82.44
64298;BME280;50639;53.270;7.956;2023-04-16T06:28:42;102212.06;;;8.34;82.88
64298;BME280;50639;53.270;7.956;2023-04-16T06:31:08;102223.25;;;8.47;82.93
64298;BME280;50639;53.270;7.956;2023-04-16T06:33:33;102223.13;;;8.48;82.23
64298;BME280;50639;53.270;7.956;2023-04-16T06:35:59;102231.22;;;8.66;82.46
64298;BME280;50639;53.270;7.956;2023-04-16T06:38:24;102225.50;;;8.61;82.49
64298;BME280;50639;53.270;7.956;2023-04-16T06:40:50;102240.88;;;8.77;82.23
64298;BME280;50639;53.270;7.956;2023-04-16T06:43:15;102233.59;;;8.69;81.92
64298;BME280;50639;53.270;7.956;2023-04-16T06:45:42;102239.56;;;8.90;82.28
64298;BME280;50639;53.270;7.956;2023-04-16T06:48:10;102239.56;;;8.90;81.82
64298;BME280;50639;53.270;7.956;2023-04-16T06:50:36;102252.72;;;9.01;80.62
64298;BME280;50639;53.270;7.956;2023-04-16T06:53:01;102253.19;;;8.87;81.14
64298;BME280;50639;53.270;7.956;2023-04-16T06:55:27;102256.38;;;9.00;81.65
64298;BME280;50639;53.270;7.956;2023-04-16T06:57:53;102253.41;;;9.13;80.72
64298;BME280;50639;53.270;7.956;2023-04-16T07:00:18;102250.13;;;9.19;79.92
64298;BME280;50639;53.270;7.956;2023-04-16T07:02:43;102253.19;;;9.24;80.61
64298;BME280;50639;53.270;7.956;2023-04-16T07:05:09;102244.41;;;9.14;80.42
64298;BME280;50639;53.270;7.956;2023-04-16T07:07:35;102248.03;;;9.23;80.36
64298;BME280;50639;53.270;7.956;2023-04-16T07:10:00;102248.56;;;9.26;79.40
64298;BME280;50639;53.270;7.956;2023-04-16T07:12:25;102263.34;;;9.48;80.89
64298;BME280;50639;53.270;7.956;2023-04-16T07:14:51;102252.69;;;9.48;78.69
64298;BME280;50639;53.270;7.956;2023-04-16T07:17:17;102256.16;;;9.58;78.91
64298;BME280;50639;53.270;7.956;2023-04-16T07:19:43;102257.41;;;9.54;78.99
64298;BME280;50639;53.270;7.956;2023-04-16T07:22:08;102266.22;;;9.64;78.10
64298;BME280;50639;53.270;7.956;2023-04-16T07:24:34;102261.34;;;9.50;78.45
64298;BME280;50639;53.270;7.956;2023-04-16T07:27:00;102273.97;;;9.58;78.51
64298;BME280;50639;53.270;7.956;2023-04-16T07:29:25;102279.03;;;9.78;78.62
64298;BME280;50639;53.270;7.956;2023-04-16T07:31:51;102274.41;;;9.80;78.55
64298;BME280;50639;53.270;7.956;2023-04-16T07:34:16;102273.16;;;10.02;78.10
64298;BME280;50639;53.270;7.956;2023-04-16T07:36:42;102276.63;;;10.03;76.75
64298;BME280;50639;53.270;7.956;2023-04-16T07:39:07;102263.75;;;9.98;78.01
64298;BME280;50639;53.270;7.956;2023-04-16T07:41:33;102265.44;;;9.99;77.52
64298;BME280;50639;53.270;7.956;2023-04-16T07:43:58;102272.06;;;10.13;77.03
64298;BME280;50639;53.270;7.956;2023-04-16T07:46:24;102264.34;;;10.20;76.00
64298;BME280;50639;53.270;7.956;2023-04-16T07:48:49;102268.06;;;10.27;75.13
64298;BME280;50639;53.270;7.956;2023-04-16T07:51:17;102269.44;;;10.31;74.73
64298;BME280;50639;53.270;7.956;2023-04-16T07:53:43;102282.84;;;10.39;73.46
64298;BME280;50639;53.270;7.956;2023-04-16T07:56:08;102284.88;;;10.37;74.48
64298;BME280;50639;53.270;7.956;2023-04-16T07:58:34;102293.72;;;10.37;73.58
64298;BME280;50639;53.270;7.956;2023-04-16T08:00:59;102290.94;;;10.29;74.60
64298;BME280;50639;53.270;7.956;2023-04-16T08:03:25;102283.03;;;10.37;73.88
64298;BME280;50639;53.270;7.956;2023-04-16T08:05:51;102298.97;;;10.29;73.73
64298;BME280;50639;53.270;7.956;2023-04-16T08:08:20;102282.94;;;10.47;74.29
64298;BME280;50639;53.270;7.956;2023-04-16T08:10:46;102296.66;;;10.70;72.54
64298;BME280;50639;53.270;7.956;2023-04-16T08:13:11;102304.47;;;10.63;71.49
64298;BME280;50639;53.270;7.956;2023-04-16T08:15:37;102287.59;;;10.63;71.93
64298;BME280;50639;53.270;7.956;2023-04-16T08:18:02;102298.72;;;10.76;70.23
64298;BME280;50639;53.270;7.956;2023-04-16T08:20:30;102313.91;;;10.75;71.69
64298;BME280;50639;53.270;7.956;2023-04-16T08:22:55;102306.47;;;10.87;71.69
64298;BME280;50639;53.270;7.956;2023-04-16T08:25:21;102301.97;;;10.87;70.35
64298;BME280;50639;53.270;7.956;2023-04-16T08:27:48;102299.31;;;11.13;69.83
64298;BME280;50639;53.270;7.956;2023-04-16T08:30:14;102317.91;;;10.97;70.29
64298;BME280;50639;53.270;7.956;2023-04-16T08:32:41;102307.59;;;11.02;71.23
64298;BME280;50639;53.270;7.956;2023-04-16T08:35:08;102319.75;;;11.22;70.02
64298;BME280;50639;53.270;7.956;2023-04-16T08:37:33;102326.75;;;11.15;70.40
64298;BME280;50639;53.270;7.956;2023-04-16T08:40:02;102331.66;;;11.28;68.87
64298;BME280;50639;53.270;7.956;2023-04-16T08:42:31;102340.91;;;11.34;69.28
64298;BME280;50639;53.270;7.956;2023-04-16T08:45:26;102328.28;;;11.26;68.22
64298;BME280;50639;53.270;7.956;2023-04-16T08:47:52;102338.28;;;11.16;69.38
64298;BME280;50639;53.270;7.956;2023-04-16T08:50:22;102340.53;;;11.28;69.97
64298;BME280;50639;53.270;7.956;2023-04-16T08:52:57;102339.72;;;11.36;67.88
64298;BME280;50639;53.270;7.956;2023-04-16T08:55:31;102337.97;;;11.53;68.35
64298;BME280;50639;53.270;7.956;2023-04-16T08:58:00;102341.91;;;11.66;67.71
64298;BME280;50639;53.270;7.956;2023-04-16T09:00:30;102343.88;;;11.56;68.63
64298;BME280;50639;53.270;7.956;2023-04-16T09:02:56;102344.53;;;11.84;67.28
64298;BME280;50639;53.270;7.956;2023-04-16T09:05:22;102344.06;;;11.63;67.45
64298;BME280;50639;53.270;7.956;2023-04-16T09:07:51;102346.38;;;11.84;67.58
64298;BME280;50639;53.270;7.956;2023-04-16T09:10:17;102342.66;;;11.77;65.84
64298;BME280;50639;53.270;7.956;2023-04-16T09:12:44;102345.09;;;11.70;66.03
64298;BME280;50639;53.270;7.956;2023-04-16T09:15:11;102344.38;;;11.86;66.13
64298;BME280;50639;53.270;7.956;2023-04-16T09:17:37;102348.81;;;12.19;65.67
64298;BME280;50639;53.270;7.956;2023-04-16T09:20:05;102356.56;;;11.88;65.89
64298;BME280;50639;53.270;7.956;2023-04-16T09:22:35;102358.66;;;12.02;66.50
64298;BME280;50639;53.270;7.956;2023-04-16T09:25:01;102344.16;;;12.29;65.58
64298;BME280;50639;53.270;7.956;2023-04-16T09:27:27;102354.56;;;12.40;63.52
64298;BME280;50639;53.270;7.956;2023-04-16T09:29:54;102349.09;;;12.74;63.49
64298;BME280;50639;53.270;7.956;2023-04-16T09:32:24;102351.94;;;12.65;64.62
64298;BME280;50639;53.270;7.956;2023-04-16T09:35:00;102352.75;;;12.90;64.31
64298;BME280;50639;53.270;7.956;2023-04-16T09:37:27;102349.25;;;12.65;65.40
64298;BME280;50639;53.270;7.956;2023-04-16T09:40:00;102355.78;;;12.78;66.80
64298;BME280;50639;53.270;7.956;2023-04-16T09:42:28;102358.78;;;12.67;64.46
64298;BME280;50639;53.270;7.956;2023-04-16T09:44:55;102367.47;;;12.45;64.94
64298;BME280;50639;53.270;7.956;2023-04-16T09:47:21;102364.81;;;12.61;65.85
64298;BME280;50639;53.270;7.956;2023-04-16T09:49:47;102360.81;;;12.65;65.40
64298;BME280;50639;53.270;7.956;2023-04-16T09:52:13;102365.13;;;12.50;65.01
64298;BME280;50639;53.270;7.956;2023-04-16T09:54:49;102368.34;;;12.70;65.44
64298;BME280;50639;53.270;7.956;2023-04-16T09:57:19;102365.16;;;12.66;65.40
64298;BME280;50639;53.270;7.956;2023-04-16T09:59:45;102365.66;;;12.62;66.56
64298;BME280;50639;53.270;7.956;2023-04-16T10:02:11;102364.97;;;12.68;66.05
64298;BME280;50639;53.270;7.956;2023-04-16T10:04:47;102362.50;;;12.74;65.24
64298;BME280;50639;53.270;7.956;2023-04-16T10:07:13;102369.19;;;12.70;65.40
64298;BME280;50639;53.270;7.956;2023-04-16T10:09:39;102364.66;;;12.63;64.60
64298;BME280;50639;53.270;7.956;2023-04-16T10:12:05;102364.16;;;12.92;66.07
64298;BME280;50639;53.270;7.956;2023-04-16T10:14:31;102367.50;;;13.42;64.94
64298;BME280;50639;53.270;7.956;2023-04-16T10:16:58;102367.69;;;12.92;65.11
64298;BME280;50639;53.270;7.956;2023-04-16T10:19:26;102369.22;;;13.19;64.12
64298;BME280;50639;53.270;7.956;2023-04-16T10:21:52;102365.34;;;13.13;64.48
64298;BME280;50639;53.270;7.956;2023-04-16T10:24:18;102368.03;;;13.13;62.89
64298;BME280;50639;53.270;7.956;2023-04-16T10:26:43;102365.84;;;13.25;63.56
64298;BME280;50639;53.270;7.956;2023-04-16T10:29:10;102370.88;;;13.20;63.24
64298;BME280;50639;53.270;7.956;2023-04-16T10:31:37;102369.16;;;13.11;63.50
64298;BME280;50639;53.270;7.956;2023-04-16T10:34:04;102363.97;;;12.93;63.14
64298;BME280;50639;53.270;7.956;2023-04-16T10:36:35;102365.97;;;13.40;62.26
64298;BME280;50639;53.270;7.956;2023-04-16T10:39:01;102362.97;;;13.02;63.37
64298;BME280;50639;53.270;7.956;2023-04-16T10:41:27;102365.50;;;12.96;63.59
64298;BME280;50639;53.270;7.956;2023-04-16T10:44:03;102369.84;;;13.21;62.36
64298;BME280;50639;53.270;7.956;2023-04-16T10:46:31;102372.19;;;13.40;62.51
64298;BME280;50639;53.270;7.956;2023-04-16T10:49:00;102370.03;;;13.83;61.43
64298;BME280;50639;53.270;7.956;2023-04-16T10:51:28;102381.56;;;13.52;60.95
64298;BME280;50639;53.270;7.956;2023-04-16T10:53:55;102367.06;;;13.78;60.90
64298;BME280;50639;53.270;7.956;2023-04-16T10:56:25;102362.88;;;13.67;61.43
64298;BME280;50639;53.270;7.956;2023-04-16T10:58:54;102368.69;;;13.87;61.48
64298;BME280;50639;53.270;7.956;2023-04-16T11:01:28;102368.50;;;13.97;59.54
64298;BME280;50639;53.270;7.956;2023-04-16T11:03:54;102368.63;;;14.03;59.24
64298;BME280;50639;53.270;7.956;2023-04-16T11:06:24;102371.66;;;14.31;58.80
64298;BME280;50639;53.270;7.956;2023-04-16T11:08:51;102363.19;;;13.80;59.99
64298;BME280;50639;53.270;7.956;2023-04-16T11:11:20;102370.91;;;14.14;58.74
64298;BME280;50639;53.270;7.956;2023-04-16T11:13:46;102376.88;;;13.93;59.16
64298;BME280;50639;53.270;7.956;2023-04-16T11:16:16;102376.31;;;14.14;58.22
64298;BME280;50639;53.270;7.956;2023-04-16T11:18:44;102365.03;;;13.80;59.94
64298;BME280;50639;53.270;7.956;2023-04-16T11:21:10;102372.06;;;13.81;59.95
64298;BME280;50639;53.270;7.956;2023-04-16T11:23:47;102367.34;;;13.83;61.10
64298;BME280;50639;53.270;7.956;2023-04-16T11:26:27;102361.94;;;13.91;60.25
64298;BME280;50639;53.270;7.956;2023-04-16T11:28:54;102355.97;;;14.12;60.21
64298;BME280;50639;53.270;7.956;2023-04-16T11:31:20;102358.66;;;14.51;58.32
64298;BME280;50639;53.270;7.956;2023-04-16T11:33:45;102369.75;;;14.09;58.65
64298;BME280;50639;53.270;7.956;2023-04-16T11:36:11;102359.81;;;14.48;59.56
64298;BME280;50639;53.270;7.956;2023-04-16T11:38:38;102358.31;;;14.91;57.72
64298;BME280;50639;53.270;7.956;2023-04-16T11:41:05;102358.66;;;14.51;56.85
64298;BME280;50639;53.270;7.956;2023-04-16T11:43:31;102356.84;;;14.35;56.98
64298;BME280;50639;53.270;7.956;2023-04-16T11:46:03;102364.00;;;14.20;57.18
64298;BME280;50639;53.270;7.956;2023-04-16T11:48:48;102357.78;;;14.73;57.80
64298;BME280;50639;53.270;7.956;2023-04-16T11:51:14;102356.47;;;14.15;58.89
64298;BME280;50639;53.270;7.956;2023-04-16T11:53:52;102359.88;;;14.40;56.42
64298;BME280;50639;53.270;7.956;2023-04-16T11:56:25;102354.50;;;14.86;56.45
64298;BME280;50639;53.270;7.956;2023-04-16T11:59:11;102355.19;;;15.02;56.76
64298;BME280;50639;53.270;7.956;2023-04-16T12:01:38;102363.66;;;14.77;56.75
64298;BME280;50639;53.270;7.956;2023-04-16T12:04:04;102359.34;;;14.37;57.87
64298;BME280;50639;53.270;7.956;2023-04-16T12:06:30;102357.13;;;14.71;56.51
64298;BME280;50639;53.270;7.956;2023-04-16T12:08:59;102358.66;;;14.43;57.40
64298;BME280;50639;53.270;7.956;2023-04-16T12:11:38;102359.16;;;14.46;57.96
64298;BME280;50639;53.270;7.956;2023-04-16T12:14:10;102366.34;;;14.23;59.32
64298;BME280;50639;53.270;7.956;2023-04-16T12:16:36;102358.41;;;14.29;58.86
64298;BME280;50639;53.270;7.956;2023-04-16T12:19:03;102364.63;;;14.30;57.77
64298;BME280;50639;53.270;7.956;2023-04-16T12:21:45;102364.69;;;14.76;56.98
64298;BME280;50639;53.270;7.956;2023-04-16T12:24:13;102369.44;;;14.65;58.57
64298;BME280;50639;53.270;7.956;2023-04-16T12:26:46;102366.72;;;14.51;57.80
64298;BME280;50639;53.270;7.956;2023-04-16T12:29:16;102364.34;;;14.71;58.09
64298;BME280;50639;53.270;7.956;2023-04-16T12:31:45;102354.97;;;14.44;57.74
64298;BME280;50639;53.270;7.956;2023-04-16T12:34:23;102365.22;;;14.09;58.54
64298;BME280;50639;53.270;7.956;2023-04-16T12:37:06;102361.97;;;14.53;59.03
64298;BME280;50639;53.270;7.956;2023-04-16T12:39:35;102366.50;;;14.52;58.11
64298;BME280;50639;53.270;7.956;2023-04-16T12:42:00;102360.59;;;15.17;57.45
64298;BME280;50639;53.270;7.956;2023-04-16T12:44:28;102363.13;;;14.96;55.79
64298;BME280;50639;53.270;7.956;2023-04-16T12:46:53;102363.59;;;14.31;58.13
64298;BME280;50639;53.270;7.956;2023-04-16T12:49:19;102361.66;;;14.71;57.92
64298;BME280;50639;53.270;7.956;2023-04-16T12:51:45;102357.91;;;15.17;56.23
64298;BME280;50639;53.270;7.956;2023-04-16T12:54:11;102359.09;;;15.15;56.56
64298;BME280;50639;53.270;7.956;2023-04-16T12:56:36;102356.59;;;15.65;56.10